Edison, NJ (08820)

1:10 PM EDT on August 30, 2015 (GMT -0400)
North Edison (Inman Grove Area) | | Change Station
CLOSE
Current Station
Personal Weather Station
Location: Edison, NJ
Elevation: 121 ft
Nearby Weather Stations

Elev 121 ft 40.59 °N, 74.36 °W | Updated 8 seconds ago

Clear
Clear
88.4 °F
Feels Like 93 °F
N
3.0
Wind Variable Wind from WNW
Gusts 3.0 mph

Today
High -- | Low -- °F
--% Chance of Precip.
Yesterday
High -- | Low -- °F
Precip. -- in
6:22 AM 7:33 PM
Full, 99% visible
Pressure 30.09 in
Visibility 10.0 miles
Clouds Clear
Heat Index 93 °F
Dew Point 70 °F
Humidity 54%
Rainfall 0.00 in
Snow Depth Not available.
UV 9 out of 12
Pollen 10.30 out of 12
Air Quality Not available.
Flu Activity Not available.
METAR KLDJ 301655Z AUTO 27004KT 10SM CLR 30/17 A3009 RMK AO2 T03030170
Pressure 30.09 in
Visibility 10.0 miles
Clouds Clear
Heat Index 93 °F
Dew Point 70 °F
Humidity 54%
Rainfall 0.00 in
Snow Depth Not available.
UV 9 out of 12
Pollen 10.30 out of 12
Air Quality Not available.
Flu Activity Not available.
METAR KLDJ 301655Z AUTO 27004KT 10SM CLR 30/17 A3009 RMK AO2 T03030170

10-Day Weather Forecast

×

Almanac

Astronomy

Aug. 30, 2015 Rise Set
Actual Time
Civil Twilight
Nautical Twilight
Astronomical Twilight
Moon
Length of Visible Light
Length of Day
Tomorrow will be .
, % of the Moon is Illuminated

Today's Extremes

State Highs State Lows

Community

WunderPhotos

Upload Photos

1,851,014 photos uploaded!

WunderBlogs® & News

Nearby

Air Quality

  Air Quality AQ Index Pollutant
Not available.

Snow Depth

Station Depth Elevation

Earthquake Activity

City Distance Mag. Time & Date
Minimum magnitude displayed is 2.5.

Coastal Water Temperatures

Place Temperature

Stations

Nearby Weather Stations

Station Location Temp. Windchill Dew Point Humidity Wind Precip. Elev Updated Type